YTEF/TEF METAR and TAF weather

Enter ICAO airport designator
Station Type Date Time Source
YTEF METAR 2020/07/15 07:00 UTC NOAA

YTEF 150700Z AUTO 10015KT 9999 // NCD 27/M03 Q1016


Station Type Date Time Source
YTEF Decoded METAR 2020/07/15 07:00 UTC NOAA

Station name not available
Jul 15, 2020 - 03:00 AM EDT / 2020.07.15 0700 UTC
Wind: from the E (100 degrees) at 17 MPH (15 KT):0
Visibility: greater than 7 mile(s):0
Temperature: 80 F (27 C)
Dew Point: 26 F (-3 C)
Relative Humidity: 13%
Pressure (altimeter): 30.00 in. Hg (1016 hPa)
ob: YTEF 150700Z AUTO 10015KT 9999 // NCD 27/M03 Q1016
cycle: 7

Station Type Date Time Source
YTEF TAF 2017/06/24 02:03 UTC NOAA

TAF TAF YTEF 240051Z 2402/2414 12005KT CAVOK
FM240500 33005KT 9999 -SHRA SCT060 BKN100

Example: see airport list